Ballonweer?

Available data for EHGG from the past 2 hours
GRONINGEN/EELDE
Metar
EHGG 260555Z AUTO 06010KT 030V090 9999 NSC 16/10 Q1021 NOSIG

05:55 UTC

Wind: 60° 10kt

Visibility: 9999 m

Sky:

Temp: 16 deg C / 60.8 deg F

Dewpoint: 10 deg C / 50 deg F

Pressure: 1021 hPa

TAF
TAF EHGG 260434Z 2606/2712 08008KT CAVOK

Buienradar (tot 2 uur vooruit)

 

KNMI weerbulletin kleine luchtvaart

Klik hier om het weerbulletin te openen in een nieuw tabblad.